Time;durP1;ratioP1;P1;durP2;ratioP2;P2;SDS_P1;SDS_P2;PMS_P1;PMS_P2;Temp;Humidity;BMP_temperature;BMP_pressure;BME280_temperature;BME280_humidity;BME280_pressure;Samples;Min_cycle;Max_cycle;Signal;HPM_P1;HPM_P2
2023/06/21 00:02:06;;;;;;;18.77;12.80;;;;;;;;;;786992;176;919002;-63
2023/06/21 00:04:32;;;;;;;20.70;13.50;;;;;;;;;;796788;176;919005;-73
2023/06/21 00:06:58;;;;;;;20.70;11.17;;;;;;;;;;786132;176;927157;-63
2023/06/21 00:09:24;;;;;;;23.63;14.20;;;;;;;;;;788273;176;920486;-73
2023/06/21 00:11:50;;;;;;;20.75;13.80;;;;;;;;;;785175;176;918065;-70
2023/06/21 00:14:16;;;;;;;17.77;13.33;;;;;;;;;;789912;177;917977;-63
2023/06/21 00:16:42;;;;;;;19.90;13.37;;;;;;;;;;787632;177;871627;-63
2023/06/21 00:19:07;;;;;;;15.38;13.57;;;;;;;;;;785508;176;918038;-73
2023/06/21 00:21:33;;;;;;;24.57;13.43;;;;;;;;;;787889;177;918988;-74
2023/06/21 00:24:02;;;;;;;24.90;13.60;;;;;;;;;;775371;178;920835;-73
2023/06/21 00:26:25;;;;;;;16.95;12.48;;;;;;;;;;788520;177;895892;-63
2023/06/21 00:28:51;;;;;;;15.40;12.97;;;;;;;;;;790868;177;918555;-73
2023/06/21 00:31:17;;;;;;;17.77;13.20;;;;;;;;;;787676;177;919068;-64
2023/06/21 00:33:42;;;;;;;15.95;13.73;;;;;;;;;;786340;177;915140;-73
2023/06/21 00:36:08;;;;;;;16.97;13.87;;;;;;;;;;790213;177;855743;-63
2023/06/21 00:38:35;;;;;;;19.13;12.50;;;;;;;;;;786755;176;915453;-73
2023/06/21 00:41:02;;;;;;;33.53;12.73;;;;;;;;;;786103;177;919892;-73
2023/06/21 00:43:28;;;;;;;18.27;13.40;;;;;;;;;;787636;177;912351;-63
2023/06/21 00:45:54;;;;;;;21.00;14.00;;;;;;;;;;793371;177;920637;-63
2023/06/21 00:48:20;;;;;;;20.70;12.17;;;;;;;;;;786783;177;911419;-63
2023/06/21 00:50:46;;;;;;;19.47;13.00;;;;;;;;;;789505;177;913227;-73
2023/06/21 00:53:12;;;;;;;19.83;12.87;;;;;;;;;;790476;176;876322;-73
2023/06/21 00:55:40;;;;;;;16.33;12.03;;;;;;;;;;786399;175;916207;-73
2023/06/21 00:58:03;;;;;;;28.23;15.70;;;;;;;;;;783017;177;922874;-63
2023/06/21 01:00:30;;;;;;;18.05;14.48;;;;;;;;;;791319;177;915212;-70
2023/06/21 01:02:56;;;;;;;16.83;13.23;;;;;;;;;;779963;179;918434;-73
2023/06/21 01:05:21;;;;;;;16.23;13.80;;;;;;;;;;790301;175;919383;-63
2023/06/21 01:07:48;;;;;;;22.30;12.68;;;;;;;;;;784055;176;920184;-71
2023/06/21 01:10:17;;;;;;;19.30;13.50;;;;;;;;;;789586;177;920664;-73
2023/06/21 01:12:59;;;;;;;16.47;14.53;;;;;;;;;;783852;176;918569;-63
2023/06/21 01:15:25;;;;;;;18.80;12.83;;;;;;;;;;785437;177;919492;-73
2023/06/21 01:17:52;;;;;;;24.23;14.00;;;;;;;;;;781762;177;869313;-71
2023/06/21 01:20:24;;;;;;;18.47;13.00;;;;;;;;;;797392;176;819916;-63
2023/06/21 01:22:50;;;;;;;20.27;13.47;;;;;;;;;;784263;177;919162;-63
2023/06/21 01:25:22;;;;;;;18.20;12.80;;;;;;;;;;781458;177;922385;-63
2023/06/21 01:28:05;;;;;;;21.45;13.10;;;;;;;;;;786793;177;919795;-63
2023/06/21 01:30:30;;;;;;;17.40;13.60;;;;;;;;;;778728;175;954494;-63
2023/06/21 01:32:56;;;;;;;21.20;13.23;;;;;;;;;;791803;177;917113;-74
2023/06/21 01:35:22;;;;;;;27.00;13.67;;;;;;;;;;787741;177;921752;-63
2023/06/21 01:37:49;;;;;;;20.33;13.40;;;;;;;;;;785118;177;918854;-73
2023/06/21 01:40:15;;;;;;;21.77;14.73;;;;;;;;;;784635;177;915474;-63
2023/06/21 01:42:41;;;;;;;16.33;13.37;;;;;;;;;;790603;177;901435;-63
2023/06/21 01:45:07;;;;;;;20.37;13.90;;;;;;;;;;785625;177;921248;-63
2023/06/21 01:47:33;;;;;;;27.67;12.90;;;;;;;;;;784633;177;918455;-63
2023/06/21 01:49:58;;;;;;;28.10;13.03;;;;;;;;;;789533;178;917590;-71
2023/06/21 01:52:24;;;;;;;25.73;12.60;;;;;;;;;;779019;178;919913;-63
2023/06/21 01:54:50;;;;;;;22.73;12.80;;;;;;;;;;786825;177;918112;-73
2023/06/21 01:57:17;;;;;;;21.80;12.80;;;;;;;;;;785840;176;922838;-63
2023/06/21 01:59:43;;;;;;;33.93;12.70;;;;;;;;;;777688;179;920307;-73
2023/06/21 02:02:08;;;;;;;21.70;13.30;;;;;;;;;;780906;176;918941;-73
2023/06/21 02:04:35;;;;;;;20.37;12.90;;;;;;;;;;784452;177;919759;-72
2023/06/21 02:07:02;;;;;;;18.50;13.43;;;;;;;;;;789689;176;918732;-63
2023/06/21 02:09:26;;;;;;;29.97;12.67;;;;;;;;;;788708;176;850737;-73
2023/06/21 02:11:52;;;;;;;25.87;13.87;;;;;;;;;;787280;176;919249;-73
2023/06/21 02:14:18;;;;;;;29.17;13.10;;;;;;;;;;789701;177;917685;-72
2023/06/21 02:16:43;;;;;;;29.30;15.97;;;;;;;;;;786954;177;921500;-73
2023/06/21 02:19:09;;;;;;;19.33;12.83;;;;;;;;;;787635;176;878059;-63
2023/06/21 02:21:37;;;;;;;33.97;14.00;;;;;;;;;;792947;177;897371;-73
2023/06/21 02:24:02;;;;;;;20.60;13.30;;;;;;;;;;785939;178;919281;-73
2023/06/21 02:26:28;;;;;;;22.63;13.70;;;;;;;;;;779739;177;919991;-74
2023/06/21 02:28:53;;;;;;;25.07;13.50;;;;;;;;;;782672;176;1022409;-63
2023/06/21 02:31:19;;;;;;;48.63;15.03;;;;;;;;;;793091;177;826589;-75
2023/06/21 02:33:45;;;;;;;45.10;15.40;;;;;;;;;;782749;176;920717;-63
2023/06/21 02:36:11;;;;;;;26.63;13.70;;;;;;;;;;781806;177;923157;-74
2023/06/21 02:38:37;;;;;;;19.20;12.47;;;;;;;;;;791250;176;917145;-63
2023/06/21 02:41:03;;;;;;;22.90;13.47;;;;;;;;;;785533;177;820340;-63
2023/06/21 02:43:28;;;;;;;26.87;14.35;;;;;;;;;;784308;176;919623;-74
2023/06/21 02:45:56;;;;;;;26.60;13.47;;;;;;;;;;788154;177;918446;-74
2023/06/21 02:48:20;;;;;;;21.50;13.40;;;;;;;;;;787781;177;919222;-63
2023/06/21 02:50:46;;;;;;;34.53;13.53;;;;;;;;;;783568;175;919126;-74
2023/06/21 02:53:12;;;;;;;17.07;13.50;;;;;;;;;;782062;177;919319;-63
2023/06/21 02:55:38;;;;;;;25.30;16.30;;;;;;;;;;781221;177;920271;-63
2023/06/21 02:58:04;;;;;;;23.93;13.17;;;;;;;;;;783750;176;931880;-63
2023/06/21 03:00:31;;;;;;;19.70;14.30;;;;;;;;;;784353;177;921322;-63
2023/06/21 03:03:03;;;;;;;24.83;13.27;;;;;;;;;;791406;177;817732;-73
2023/06/21 03:05:29;;;;;;;30.23;13.73;;;;;;;;;;790466;177;918617;-74
2023/06/21 03:07:55;;;;;;;29.00;14.33;;;;;;;;;;783840;177;919798;-63
2023/06/21 03:10:21;;;;;;;24.20;12.90;;;;;;;;;;785870;177;923096;-75
2023/06/21 03:12:47;;;;;;;32.47;14.37;;;;;;;;;;794101;177;825758;-63
2023/06/21 03:15:13;;;;;;;27.50;16.10;;;;;;;;;;788740;177;918620;-74
2023/06/21 03:17:39;;;;;;;31.33;14.40;;;;;;;;;;785498;177;913165;-63
2023/06/21 03:20:08;;;;;;;37.83;14.40;;;;;;;;;;791575;176;923941;-63
2023/06/21 03:22:31;;;;;;;30.53;14.10;;;;;;;;;;783858;177;918649;-73
2023/06/21 03:24:57;;;;;;;26.70;14.17;;;;;;;;;;783149;177;920769;-62
2023/06/21 03:27:23;;;;;;;40.63;17.23;;;;;;;;;;793564;175;816938;-62
2023/06/21 03:29:49;;;;;;;15.70;13.70;;;;;;;;;;787616;177;921443;-74
2023/06/21 03:32:15;;;;;;;24.60;14.70;;;;;;;;;;790701;176;897639;-73
2023/06/21 03:34:40;;;;;;;23.93;15.80;;;;;;;;;;786345;175;916843;-75
2023/06/21 03:37:06;;;;;;;28.73;14.07;;;;;;;;;;790967;176;863470;-63
2023/06/21 03:39:32;;;;;;;20.17;14.23;;;;;;;;;;785561;175;920173;-63
2023/06/21 03:41:58;;;;;;;24.33;13.20;;;;;;;;;;787383;176;914965;-62
2023/06/21 03:44:24;;;;;;;18.13;13.80;;;;;;;;;;791334;177;918608;-63
2023/06/21 03:46:49;;;;;;;24.00;14.70;;;;;;;;;;785503;177;919516;-63
2023/06/21 03:49:16;;;;;;;21.40;14.23;;;;;;;;;;779946;177;918186;-63
2023/06/21 03:51:41;;;;;;;23.10;15.17;;;;;;;;;;793241;177;916501;-74
2023/06/21 03:54:07;;;;;;;20.17;15.57;;;;;;;;;;788256;177;920218;-62
2023/06/21 03:56:33;;;;;;;25.37;14.70;;;;;;;;;;786883;177;867919;-63
2023/06/21 03:58:59;;;;;;;23.70;15.87;;;;;;;;;;787572;177;918885;-63
2023/06/21 04:01:25;;;;;;;21.47;15.03;;;;;;;;;;790708;177;818092;-62
2023/06/21 04:03:50;;;;;;;20.73;14.50;;;;;;;;;;788424;177;715582;-63
2023/06/21 04:06:16;;;;;;;24.63;15.93;;;;;;;;;;787850;177;816939;-73
2023/06/21 04:08:42;;;;;;;24.80;16.07;;;;;;;;;;790165;177;918403;-74
2023/06/21 04:11:08;;;;;;;23.00;14.67;;;;;;;;;;785162;177;920972;-63
2023/06/21 04:13:35;;;;;;;22.10;14.10;;;;;;;;;;788670;176;820321;-72
2023/06/21 04:16:00;;;;;;;19.30;14.63;;;;;;;;;;788828;177;815976;-74
2023/06/21 04:18:25;;;;;;;19.43;14.27;;;;;;;;;;786393;177;874183;-75
2023/06/21 04:20:51;;;;;;;22.13;15.25;;;;;;;;;;788002;177;916232;-63
2023/06/21 04:23:17;;;;;;;22.87;14.40;;;;;;;;;;785041;177;943357;-63
2023/06/21 04:25:43;;;;;;;15.97;14.00;;;;;;;;;;787716;177;914562;-73
2023/06/21 04:28:10;;;;;;;18.57;14.40;;;;;;;;;;783215;177;919706;-75
2023/06/21 04:30:35;;;;;;;17.80;15.03;;;;;;;;;;784263;177;915123;-73
2023/06/21 04:33:01;;;;;;;16.90;14.23;;;;;;;;;;790700;176;818469;-74
2023/06/21 04:35:26;;;;;;;17.40;14.63;;;;;;;;;;783583;177;917891;-74
2023/06/21 04:37:52;;;;;;;18.83;14.43;;;;;;;;;;784206;177;918746;-74
2023/06/21 04:40:18;;;;;;;19.45;13.95;;;;;;;;;;794224;176;916136;-63
2023/06/21 04:42:45;;;;;;;16.70;13.57;;;;;;;;;;779971;175;917249;-75
2023/06/21 04:45:11;;;;;;;18.50;14.70;;;;;;;;;;784243;176;906788;-63
2023/06/21 04:47:37;;;;;;;15.70;14.00;;;;;;;;;;788541;175;901305;-64
2023/06/21 04:50:03;;;;;;;15.20;13.60;;;;;;;;;;784737;175;813890;-75
2023/06/21 04:52:28;;;;;;;16.57;13.60;;;;;;;;;;780058;176;972356;-63
2023/06/21 04:54:59;;;;;;;15.35;13.75;;;;;;;;;;785525;176;920389;-73
2023/06/21 04:57:20;;;;;;;15.55;13.52;;;;;;;;;;794307;177;920145;-63
2023/06/21 04:59:48;;;;;;;16.53;12.60;;;;;;;;;;789511;177;817150;-63
2023/06/21 05:02:12;;;;;;;16.00;12.80;;;;;;;;;;786912;175;631398;-63
2023/06/21 05:04:38;;;;;;;20.87;16.20;;;;;;;;;;796782;176;620165;-63
2023/06/21 05:07:05;;;;;;;15.50;13.87;;;;;;;;;;787730;177;646346;-75
2023/06/21 05:09:29;;;;;;;16.33;14.40;;;;;;;;;;786533;177;922598;-74
2023/06/21 05:11:55;;;;;;;22.50;13.57;;;;;;;;;;792043;177;919480;-73
2023/06/21 05:14:21;;;;;;;16.07;13.17;;;;;;;;;;787062;176;918182;-74
2023/06/21 05:16:47;;;;;;;13.75;12.32;;;;;;;;;;785205;176;816964;-63
2023/06/21 05:19:13;;;;;;;16.43;12.47;;;;;;;;;;783666;177;918670;-64
2023/06/21 05:21:39;;;;;;;16.33;12.90;;;;;;;;;;791654;177;919566;-75
2023/06/21 05:24:05;;;;;;;17.10;13.37;;;;;;;;;;784185;177;919256;-64
2023/06/21 05:26:30;;;;;;;16.70;13.30;;;;;;;;;;783343;177;919297;-63
2023/06/21 05:28:56;;;;;;;14.33;12.90;;;;;;;;;;789181;177;919124;-74
2023/06/21 05:31:23;;;;;;;14.80;12.93;;;;;;;;;;785149;177;919256;-75
2023/06/21 05:33:48;;;;;;;15.23;12.33;;;;;;;;;;785979;176;919664;-74
2023/06/21 05:36:14;;;;;;;14.10;12.60;;;;;;;;;;787677;177;920185;-63
2023/06/21 05:38:40;;;;;;;13.10;11.27;;;;;;;;;;784956;177;922915;-63
2023/06/21 05:41:05;;;;;;;17.50;12.80;;;;;;;;;;783884;177;918250;-75
2023/06/21 05:43:31;;;;;;;12.80;11.00;;;;;;;;;;786460;177;918525;-74
2023/06/21 05:45:57;;;;;;;14.37;11.33;;;;;;;;;;790125;177;879643;-64
2023/06/21 05:48:23;;;;;;;14.00;11.80;;;;;;;;;;786391;177;920451;-63
2023/06/21 05:50:50;;;;;;;15.30;12.90;;;;;;;;;;786743;174;919934;-75
2023/06/21 05:53:15;;;;;;;13.23;11.20;;;;;;;;;;792470;175;915532;-75
2023/06/21 05:55:41;;;;;;;13.63;11.93;;;;;;;;;;787166;176;914823;-64
2023/06/21 05:58:06;;;;;;;12.87;11.53;;;;;;;;;;787828;176;920740;-75
2023/06/21 06:00:32;;;;;;;13.73;11.20;;;;;;;;;;791460;177;918774;-64
2023/06/21 06:02:58;;;;;;;21.33;10.63;;;;;;;;;;785371;177;920991;-77
2023/06/21 06:05:24;;;;;;;14.83;11.33;;;;;;;;;;787613;177;924056;-76
2023/06/21 06:07:50;;;;;;;12.80;11.50;;;;;;;;;;787703;177;818700;-64
2023/06/21 06:10:16;;;;;;;14.20;11.23;;;;;;;;;;785497;177;818124;-64
2023/06/21 06:12:42;;;;;;;12.77;11.30;;;;;;;;;;783284;177;835836;-75
2023/06/21 06:15:08;;;;;;;14.87;10.73;;;;;;;;;;787519;177;816430;-64
2023/06/21 06:17:34;;;;;;;12.30;11.10;;;;;;;;;;791270;177;861311;-63
2023/06/21 06:20:05;;;;;;;15.10;10.40;;;;;;;;;;789140;177;818226;-64
2023/06/21 06:22:25;;;;;;;12.83;11.10;;;;;;;;;;786991;176;818034;-77
2023/06/21 06:24:51;;;;;;;12.17;11.07;;;;;;;;;;793446;177;867937;-77
2023/06/21 06:27:17;;;;;;;14.63;11.57;;;;;;;;;;782347;177;920071;-64
2023/06/21 06:29:43;;;;;;;17.33;12.43;;;;;;;;;;785511;177;913062;-64
2023/06/21 06:32:09;;;;;;;13.47;12.17;;;;;;;;;;790652;177;917973;-64
2023/06/21 06:34:35;;;;;;;14.93;12.10;;;;;;;;;;772020;178;920888;-63
2023/06/21 06:37:01;;;;;;;12.83;11.37;;;;;;;;;;780644;177;909625;-64
2023/06/21 06:39:27;;;;;;;12.60;11.30;;;;;;;;;;781804;176;920517;-76
2023/06/21 06:41:53;;;;;;;12.20;11.10;;;;;;;;;;789885;177;919408;-77
2023/06/21 06:44:19;;;;;;;13.40;11.03;;;;;;;;;;785898;176;917189;-77
2023/06/21 06:46:44;;;;;;;14.63;12.00;;;;;;;;;;794806;177;847006;-76
2023/06/21 06:49:10;;;;;;;11.80;10.63;;;;;;;;;;788863;177;922588;-63
2023/06/21 06:51:36;;;;;;;12.47;11.27;;;;;;;;;;782608;177;855345;-64
2023/06/21 06:54:02;;;;;;;12.10;10.80;;;;;;;;;;784755;176;919889;-64
2023/06/21 06:56:28;;;;;;;14.93;11.00;;;;;;;;;;788407;177;922093;-68
2023/06/21 06:58:54;;;;;;;14.90;11.07;;;;;;;;;;785086;177;919422;-63
2023/06/21 07:01:21;;;;;;;13.07;11.53;;;;;;;;;;788780;176;919818;-64
2023/06/21 07:03:45;;;;;;;16.40;11.90;;;;;;;;;;787141;175;919608;-75
2023/06/21 07:06:11;;;;;;;12.50;11.10;;;;;;;;;;792307;177;845474;-64
2023/06/21 07:08:42;;;;;;;14.80;12.10;;;;;;;;;;786084;176;919767;-76
2023/06/21 07:11:03;;;;;;;13.57;11.40;;;;;;;;;;786244;176;919421;-75
2023/06/21 07:13:29;;;;;;;14.40;11.53;;;;;;;;;;788608;175;895984;-62
2023/06/21 07:15:55;;;;;;;14.87;12.20;;;;;;;;;;783179;177;921602;-74
2023/06/21 07:18:21;;;;;;;12.83;11.47;;;;;;;;;;785978;177;896762;-74
2023/06/21 07:20:46;;;;;;;16.23;12.10;;;;;;;;;;790752;176;886686;-74
2023/06/21 07:23:12;;;;;;;13.67;12.37;;;;;;;;;;783430;177;830188;-75
2023/06/21 07:25:38;;;;;;;12.20;11.00;;;;;;;;;;787177;177;912290;-62
2023/06/21 07:28:04;;;;;;;15.30;11.83;;;;;;;;;;784103;177;916235;-71
2023/06/21 07:30:30;;;;;;;11.67;10.47;;;;;;;;;;787723;177;881235;-63
2023/06/21 07:32:56;;;;;;;12.13;10.93;;;;;;;;;;788816;176;920600;-62
2023/06/21 07:35:22;;;;;;;16.27;10.50;;;;;;;;;;784737;176;912359;-62
2023/06/21 07:37:48;;;;;;;14.13;10.70;;;;;;;;;;791155;176;805755;-75
2023/06/21 07:40:14;;;;;;;13.03;10.10;;;;;;;;;;784556;176;913766;-63
2023/06/21 07:42:40;;;;;;;14.07;9.93;;;;;;;;;;782148;176;1017688;-73
2023/06/21 07:45:06;;;;;;;13.00;10.87;;;;;;;;;;790666;177;915987;-74
2023/06/21 07:47:32;;;;;;;11.27;10.13;;;;;;;;;;786134;177;917533;-63
2023/06/21 07:49:59;;;;;;;10.70;9.70;;;;;;;;;;786785;177;859544;-62
2023/06/21 07:52:25;;;;;;;11.27;10.17;;;;;;;;;;784610;177;924081;-73
2023/06/21 07:54:51;;;;;;;16.00;10.70;;;;;;;;;;793103;176;931918;-63
2023/06/21 07:57:16;;;;;;;11.77;10.43;;;;;;;;;;782908;176;920131;-64
2023/06/21 07:59:42;;;;;;;13.10;9.73;;;;;;;;;;784433;177;921137;-62
2023/06/21 08:02:09;;;;;;;14.90;10.00;;;;;;;;;;789484;176;919716;-63
2023/06/21 08:04:35;;;;;;;14.43;10.77;;;;;;;;;;784846;175;815738;-74
2023/06/21 08:07:01;;;;;;;11.63;10.40;;;;;;;;;;785006;177;896995;-62
2023/06/21 08:09:27;;;;;;;13.37;10.27;;;;;;;;;;788579;177;918383;-62
2023/06/21 08:11:52;;;;;;;14.67;11.03;;;;;;;;;;786889;177;911808;-73
2023/06/21 08:14:18;;;;;;;15.60;11.47;;;;;;;;;;789059;174;916848;-74
2023/06/21 08:16:44;;;;;;;15.63;10.17;;;;;;;;;;788767;176;879340;-73
2023/06/21 08:19:10;;;;;;;14.17;10.80;;;;;;;;;;791058;176;1015080;-63
2023/06/21 08:21:36;;;;;;;13.20;11.37;;;;;;;;;;789225;175;818640;-74
2023/06/21 08:24:02;;;;;;;11.53;10.33;;;;;;;;;;785685;176;832382;-62
2023/06/21 08:26:28;;;;;;;12.27;11.00;;;;;;;;;;793580;176;815217;-74
2023/06/21 08:28:54;;;;;;;15.17;11.80;;;;;;;;;;785458;176;919589;-73
2023/06/21 08:31:19;;;;;;;13.17;11.77;;;;;;;;;;787190;176;918747;-71
2023/06/21 08:33:45;;;;;;;16.20;11.40;;;;;;;;;;792217;176;918641;-75
2023/06/21 08:36:11;;;;;;;15.83;11.50;;;;;;;;;;789736;177;817149;-62
2023/06/21 08:38:37;;;;;;;14.90;11.10;;;;;;;;;;786993;177;936828;-74
2023/06/21 08:41:03;;;;;;;14.02;11.60;;;;;;;;;;786486;176;918265;-63
2023/06/21 08:43:29;;;;;;;14.43;11.77;;;;;;;;;;788555;177;1022895;-63
2023/06/21 08:45:55;;;;;;;12.30;11.07;;;;;;;;;;786091;176;917758;-64
2023/06/21 08:48:20;;;;;;;13.93;11.83;;;;;;;;;;784956;178;891744;-62
2023/06/21 08:50:46;;;;;;;20.50;11.20;;;;;;;;;;791242;177;816058;-74
2023/06/21 08:53:12;;;;;;;10.47;9.47;;;;;;;;;;784488;175;918410;-75
2023/06/21 08:55:38;;;;;;;19.17;13.40;;;;;;;;;;782332;177;916643;-75
2023/06/21 08:58:05;;;;;;;12.73;10.60;;;;;;;;;;789586;177;937206;-63
2023/06/21 09:00:31;;;;;;;14.40;10.80;;;;;;;;;;777839;178;918554;-75
2023/06/21 09:03:02;;;;;;;12.87;11.43;;;;;;;;;;771366;177;919408;-62
2023/06/21 09:05:28;;;;;;;11.77;10.57;;;;;;;;;;784344;175;915754;-62
2023/06/21 09:07:53;;;;;;;13.90;12.50;;;;;;;;;;791952;177;917985;-61
2023/06/21 09:10:21;;;;;;;12.10;10.73;;;;;;;;;;780853;177;954580;-62
2023/06/21 09:12:46;;;;;;;18.30;10.60;;;;;;;;;;787220;177;906769;-76
2023/06/21 09:15:12;;;;;;;15.07;11.53;;;;;;;;;;788061;177;919332;-62
2023/06/21 09:17:37;;;;;;;13.50;12.10;;;;;;;;;;782425;177;913681;-63
2023/06/21 09:20:03;;;;;;;13.70;11.13;;;;;;;;;;784262;177;912899;-74
2023/06/21 09:22:29;;;;;;;16.75;12.88;;;;;;;;;;787728;177;819595;-73
2023/06/21 09:24:55;;;;;;;11.87;10.77;;;;;;;;;;791260;175;817160;-62
2023/06/21 09:27:21;;;;;;;13.13;11.83;;;;;;;;;;786779;176;920111;-75
2023/06/21 09:29:47;;;;;;;17.52;11.10;;;;;;;;;;785199;176;1124195;-63
2023/06/21 09:32:13;;;;;;;19.17;11.97;;;;;;;;;;791987;176;814067;-64
2023/06/21 09:34:39;;;;;;;17.13;13.37;;;;;;;;;;782652;176;918802;-74
2023/06/21 09:37:04;;;;;;;13.67;12.27;;;;;;;;;;788545;176;810680;-62
2023/06/21 09:39:30;;;;;;;13.97;12.57;;;;;;;;;;789999;176;920151;-63
2023/06/21 09:41:56;;;;;;;11.73;10.70;;;;;;;;;;785577;176;919354;-76
2023/06/21 09:44:22;;;;;;;13.57;10.60;;;;;;;;;;787999;176;817304;-62
2023/06/21 09:46:48;;;;;;;14.17;11.30;;;;;;;;;;790482;176;881500;-76
2023/06/21 09:49:15;;;;;;;18.73;13.10;;;;;;;;;;784494;177;887586;-74
2023/06/21 09:51:42;;;;;;;15.97;12.03;;;;;;;;;;786865;177;919242;-63
2023/06/21 09:54:08;;;;;;;13.07;11.67;;;;;;;;;;786542;177;864162;-62
2023/06/21 09:56:33;;;;;;;15.37;12.93;;;;;;;;;;793865;177;918819;-76
2023/06/21 09:59:00;;;;;;;13.03;11.67;;;;;;;;;;788007;177;848547;-76
2023/06/21 10:01:25;;;;;;;17.13;13.50;;;;;;;;;;781154;176;915718;-75
2023/06/21 10:03:51;;;;;;;15.70;12.30;;;;;;;;;;786839;176;914909;-75
2023/06/21 10:06:17;;;;;;;13.60;12.10;;;;;;;;;;787032;177;851869;-63
2023/06/21 10:08:43;;;;;;;14.90;12.67;;;;;;;;;;786428;177;916843;-77
2023/06/21 10:11:08;;;;;;;15.93;12.87;;;;;;;;;;785935;177;918808;-76
2023/06/21 10:13:37;;;;;;;18.73;13.30;;;;;;;;;;786482;176;913079;-62
2023/06/21 10:16:00;;;;;;;13.57;12.17;;;;;;;;;;784220;176;917189;-76
2023/06/21 10:18:26;;;;;;;13.83;12.53;;;;;;;;;;784420;177;914988;-75
2023/06/21 10:20:52;;;;;;;14.37;11.80;;;;;;;;;;790215;177;816085;-62
2023/06/21 10:23:18;;;;;;;12.57;11.47;;;;;;;;;;786503;177;923461;-74
2023/06/21 10:25:44;;;;;;;16.20;11.97;;;;;;;;;;785315;177;940428;-63
2023/06/21 10:28:09;;;;;;;15.37;11.67;;;;;;;;;;793583;177;840741;-62
2023/06/21 10:30:35;;;;;;;15.67;11.53;;;;;;;;;;783689;177;1021121;-62
2023/06/21 10:33:01;;;;;;;15.90;14.30;;;;;;;;;;785642;176;919404;-62
2023/06/21 10:35:27;;;;;;;14.40;12.90;;;;;;;;;;790630;177;919113;-75
2023/06/21 10:37:54;;;;;;;16.90;12.77;;;;;;;;;;782353;177;919515;-76
2023/06/21 10:40:19;;;;;;;12.73;11.30;;;;;;;;;;787112;176;816768;-76
2023/06/21 10:42:45;;;;;;;12.80;11.67;;;;;;;;;;785922;176;909896;-64
2023/06/21 10:45:11;;;;;;;12.57;11.20;;;;;;;;;;793685;176;789060;-75
2023/06/21 10:47:37;;;;;;;13.13;11.73;;;;;;;;;;785679;176;919790;-76
2023/06/21 10:50:03;;;;;;;12.73;11.53;;;;;;;;;;786788;176;917277;-63
2023/06/21 10:52:29;;;;;;;12.17;11.07;;;;;;;;;;793126;176;918576;-65
2023/06/21 10:54:57;;;;;;;16.53;12.90;;;;;;;;;;786840;177;898888;-63
2023/06/21 10:57:22;;;;;;;12.27;10.80;;;;;;;;;;779263;176;923920;-76
2023/06/21 10:59:48;;;;;;;12.80;11.70;;;;;;;;;;792102;177;918149;-62
2023/06/21 11:02:13;;;;;;;14.07;12.03;;;;;;;;;;782988;175;917559;-75
2023/06/21 11:04:45;;;;;;;14.10;12.50;;;;;;;;;;784919;176;918673;-75
2023/06/21 11:07:11;;;;;;;15.27;12.95;;;;;;;;;;783054;175;917820;-62
2023/06/21 11:09:37;;;;;;;13.60;11.70;;;;;;;;;;792537;176;924929;-63
2023/06/21 11:12:03;;;;;;;13.30;12.00;;;;;;;;;;786172;176;903139;-76
2023/06/21 11:14:30;;;;;;;18.23;12.47;;;;;;;;;;781389;177;925134;-63
2023/06/21 11:17:12;;;;;;;16.97;12.37;;;;;;;;;;789250;178;836012;-63
2023/06/21 11:19:37;;;;;;;13.70;12.20;;;;;;;;;;790048;177;818606;-77
2023/06/21 11:22:02;;;;;;;16.43;11.70;;;;;;;;;;781665;176;919331;-77
2023/06/21 11:24:27;;;;;;;15.63;12.50;;;;;;;;;;786150;175;919203;-64
2023/06/21 11:26:58;;;;;;;14.77;13.30;;;;;;;;;;782020;177;919200;-64
2023/06/21 11:29:25;;;;;;;13.67;12.33;;;;;;;;;;788529;177;920750;-63
2023/06/21 11:31:51;;;;;;;15.30;13.73;;;;;;;;;;782894;177;920400;-64
2023/06/21 11:34:22;;;;;;;16.63;12.60;;;;;;;;;;780777;177;918781;-64
2023/06/21 11:36:48;;;;;;;14.17;12.67;;;;;;;;;;784962;177;918302;-74
2023/06/21 11:39:28;;;;;;;13.40;12.00;;;;;;;;;;787982;175;814058;-76
2023/06/21 11:41:57;;;;;;;16.00;11.47;;;;;;;;;;785671;178;941135;-76
2023/06/21 11:44:24;;;;;;;15.83;12.47;;;;;;;;;;780204;175;917995;-77
2023/06/21 11:46:50;;;;;;;14.30;11.40;;;;;;;;;;783799;177;936461;-62
2023/06/21 11:49:16;;;;;;;13.90;12.47;;;;;;;;;;791240;175;916198;-63
2023/06/21 11:51:50;;;;;;;13.43;12.03;;;;;;;;;;784428;176;918833;-76
2023/06/21 11:54:23;;;;;;;14.43;11.30;;;;;;;;;;788412;177;875933;-62
2023/06/21 11:56:49;;;;;;;13.00;11.80;;;;;;;;;;788567;176;918415;-74
2023/06/21 11:59:15;;;;;;;17.87;11.77;;;;;;;;;;787523;176;933343;-63
2023/06/21 12:01:41;;;;;;;12.63;11.33;;;;;;;;;;788772;177;892809;-76
2023/06/21 12:04:06;;;;;;;14.47;11.37;;;;;;;;;;785275;176;916743;-76
2023/06/21 12:06:32;;;;;;;13.10;9.87;;;;;;;;;;789553;176;896929;-63
2023/06/21 12:08:58;;;;;;;17.00;12.10;;;;;;;;;;778707;178;920059;-73
2023/06/21 12:11:25;;;;;;;10.07;9.17;;;;;;;;;;788658;175;818507;-76
2023/06/21 12:13:51;;;;;;;14.23;10.68;;;;;;;;;;782599;175;919875;-63
2023/06/21 12:16:17;;;;;;;11.80;10.70;;;;;;;;;;790325;175;886652;-64
2023/06/21 12:18:43;;;;;;;11.20;10.20;;;;;;;;;;781325;177;918484;-77
2023/06/21 12:21:08;;;;;;;13.73;10.47;;;;;;;;;;787226;176;918999;-77
2023/06/21 12:23:34;;;;;;;11.10;10.00;;;;;;;;;;790993;176;916771;-62
2023/06/21 12:26:00;;;;;;;14.53;10.47;;;;;;;;;;784165;177;921034;-76
2023/06/21 12:28:26;;;;;;;11.93;10.73;;;;;;;;;;783663;177;972523;-60
2023/06/21 12:30:53;;;;;;;16.47;10.73;;;;;;;;;;784298;177;911713;-60
2023/06/21 12:33:18;;;;;;;13.00;11.13;;;;;;;;;;785158;177;903782;-62
2023/06/21 12:35:44;;;;;;;12.37;11.27;;;;;;;;;;784165;176;918243;-74
2023/06/21 12:38:09;;;;;;;14.90;10.93;;;;;;;;;;785119;177;925317;-70
2023/06/21 12:40:35;;;;;;;15.93;11.60;;;;;;;;;;789199;177;940315;-60
2023/06/21 12:43:01;;;;;;;12.33;10.73;;;;;;;;;;785473;177;919617;-74
2023/06/21 12:45:27;;;;;;;14.20;10.23;;;;;;;;;;787565;177;919454;-69
2023/06/21 12:47:54;;;;;;;12.80;11.60;;;;;;;;;;790242;177;918524;-74
2023/06/21 12:50:20;;;;;;;11.73;10.53;;;;;;;;;;787499;177;921870;-73
2023/06/21 12:52:46;;;;;;;13.67;10.50;;;;;;;;;;788611;177;920513;-60
2023/06/21 12:55:12;;;;;;;11.90;10.77;;;;;;;;;;782380;177;939119;-61
2023/06/21 12:57:39;;;;;;;13.47;11.50;;;;;;;;;;786145;177;918498;-73
2023/06/21 13:00:05;;;;;;;10.90;9.60;;;;;;;;;;785212;175;918979;-74
2023/06/21 13:02:30;;;;;;;12.57;10.57;;;;;;;;;;788979;175;919406;-72
2023/06/21 13:04:55;;;;;;;12.40;10.30;;;;;;;;;;793972;176;919737;-73
2023/06/21 13:07:21;;;;;;;12.07;10.80;;;;;;;;;;789727;176;918650;-60
2023/06/21 13:09:47;;;;;;;11.70;10.63;;;;;;;;;;784788;176;919146;-73
2023/06/21 13:12:13;;;;;;;12.40;11.20;;;;;;;;;;792275;176;918953;-61
2023/06/21 13:14:39;;;;;;;15.23;11.17;;;;;;;;;;785615;176;940080;-74
2023/06/21 13:17:05;;;;;;;13.73;11.30;;;;;;;;;;783393;177;918687;-74
2023/06/21 13:19:31;;;;;;;12.83;11.30;;;;;;;;;;790815;176;845034;-73
2023/06/21 13:21:57;;;;;;;12.73;11.37;;;;;;;;;;786802;177;919361;-62
2023/06/21 13:24:22;;;;;;;11.67;10.67;;;;;;;;;;785581;176;918666;-61
2023/06/21 13:26:48;;;;;;;13.87;11.70;;;;;;;;;;784806;177;918466;-61
2023/06/21 13:29:14;;;;;;;12.23;11.13;;;;;;;;;;793136;177;919266;-60
2023/06/21 13:31:40;;;;;;;13.03;11.73;;;;;;;;;;786560;176;937916;-60
2023/06/21 13:34:06;;;;;;;14.23;11.30;;;;;;;;;;788792;177;954576;-60
2023/06/21 13:36:32;;;;;;;14.93;11.33;;;;;;;;;;787359;177;936454;-60
2023/06/21 13:38:58;;;;;;;13.10;11.83;;;;;;;;;;786994;176;919929;-74
2023/06/21 13:41:24;;;;;;;11.67;10.47;;;;;;;;;;787157;177;849407;-73
2023/06/21 13:43:49;;;;;;;12.87;11.23;;;;;;;;;;786787;177;913462;-74
2023/06/21 13:46:15;;;;;;;15.43;10.37;;;;;;;;;;783761;177;808265;-60
2023/06/21 13:48:41;;;;;;;14.87;11.23;;;;;;;;;;781085;176;938356;-73
2023/06/21 13:51:07;;;;;;;18.33;10.50;;;;;;;;;;786136;177;997854;-61
2023/06/21 13:53:33;;;;;;;13.67;11.60;;;;;;;;;;791710;177;817233;-73
2023/06/21 13:55:59;;;;;;;15.43;10.90;;;;;;;;;;789727;177;934179;-74
2023/06/21 13:58:26;;;;;;;11.77;10.53;;;;;;;;;;785890;177;944505;-61